createdAt,value
2023-09-26T00:00:18.973Z,13.39
2023-09-26T00:01:18.987Z,13.39
2023-09-26T00:02:18.942Z,13.40
2023-09-26T00:03:18.953Z,13.43
2023-09-26T00:04:18.975Z,13.46
2023-09-26T00:05:18.920Z,13.40
2023-09-26T00:06:18.900Z,13.42
2023-09-26T00:07:18.904Z,13.38
2023-09-26T00:08:18.893Z,13.39
2023-09-26T00:09:18.880Z,13.36
2023-09-26T00:10:18.860Z,13.36
2023-09-26T00:11:18.852Z,13.35
2023-09-26T00:12:18.834Z,13.35
2023-09-26T00:13:18.889Z,13.35
2023-09-26T00:14:18.812Z,13.27
2023-09-26T00:15:18.813Z,13.24
2023-09-26T00:16:18.942Z,13.21
2023-09-26T00:17:18.792Z,13.19
2023-09-26T00:18:18.804Z,13.20
2023-09-26T00:19:18.806Z,13.23
2023-09-26T00:20:18.887Z,13.23
2023-09-26T00:21:18.762Z,13.23
2023-09-26T00:22:18.770Z,13.26
2023-09-26T00:23:18.759Z,13.26
2023-09-26T00:24:18.717Z,13.21
2023-09-26T00:25:18.758Z,13.24
2023-09-26T00:26:18.698Z,13.23
2023-09-26T00:27:18.706Z,13.27
2023-09-26T00:28:18.732Z,13.26
2023-09-26T00:29:18.676Z,13.27
2023-09-26T00:30:18.665Z,13.23
2023-09-26T00:31:18.757Z,13.24
2023-09-26T00:32:18.698Z,13.26
2023-09-26T00:33:18.654Z,13.27
2023-09-26T00:34:18.654Z,13.23
2023-09-26T00:35:18.611Z,13.21
2023-09-26T00:36:18.607Z,13.20
2023-09-26T00:37:18.729Z,13.19
2023-09-26T00:38:18.651Z,13.21
2023-09-26T00:39:18.579Z,13.21
2023-09-26T00:40:18.594Z,13.23
2023-09-26T00:41:18.558Z,13.20
2023-09-26T00:42:18.545Z,13.27
2023-09-26T00:43:18.645Z,13.21
2023-09-26T00:44:18.529Z,13.26
2023-09-26T00:45:18.521Z,13.20
2023-09-26T00:46:18.587Z,13.24
2023-09-26T00:47:18.506Z,13.23
2023-09-26T00:48:18.535Z,13.21
2023-09-26T00:49:18.515Z,13.19
2023-09-26T00:50:18.479Z,13.23
2023-09-26T00:51:18.475Z,13.23
2023-09-26T00:52:18.472Z,13.20
2023-09-26T00:53:18.453Z,13.26
2023-09-26T00:54:18.458Z,13.23
2023-09-26T00:55:18.528Z,13.20
2023-09-26T00:56:18.441Z,13.21
2023-09-26T00:57:18.408Z,13.20
2023-09-26T00:58:18.449Z,13.16
2023-09-26T00:59:18.393Z,13.14
2023-09-26T01:00:18.379Z,13.14
2023-09-26T01:01:18.448Z,13.09
2023-09-26T01:02:18.432Z,13.09
2023-09-26T01:03:18.487Z,13.11
2023-09-26T01:04:18.385Z,13.11
2023-09-26T01:05:18.349Z,13.11
2023-09-26T01:06:18.324Z,13.17
2023-09-26T01:07:18.391Z,13.16
2023-09-26T01:08:18.309Z,13.13
2023-09-26T01:09:18.311Z,13.16
2023-09-26T01:10:18.336Z,13.16
2023-09-26T01:11:18.298Z,13.19
2023-09-26T01:12:18.315Z,13.13
2023-09-26T01:13:18.301Z,13.09
2023-09-26T01:14:18.241Z,13.09
2023-09-26T01:15:18.238Z,13.08
2023-09-26T01:16:18.340Z,13.08
2023-09-26T01:17:18.238Z,13.06
2023-09-26T01:18:18.205Z,13.09
2023-09-26T01:19:18.230Z,13.05
2023-09-26T01:20:18.176Z,13.05
2023-09-26T01:21:18.173Z,13.06
2023-09-26T01:22:18.237Z,13.06
2023-09-26T01:23:18.191Z,13.08
2023-09-26T01:24:18.158Z,13.11
2023-09-26T01:25:18.327Z,13.08
2023-09-26T01:26:18.119Z,13.08
2023-09-26T01:27:18.119Z,13.08
2023-09-26T01:28:18.166Z,13.14
2023-09-26T01:29:18.103Z,13.17
2023-09-26T01:30:18.257Z,13.13
2023-09-26T01:31:18.205Z,13.16
2023-09-26T01:32:18.133Z,13.19
2023-09-26T01:33:18.189Z,13.16
2023-09-26T01:34:18.114Z,13.14
2023-09-26T01:35:18.048Z,13.11
2023-09-26T01:36:18.026Z,13.09
2023-09-26T01:37:18.080Z,13.09
2023-09-26T01:38:18.016Z,13.06
2023-09-26T01:39:18.002Z,13.04
2023-09-26T01:40:18.056Z,13.08
2023-09-26T01:41:17.982Z,13.08
2023-09-26T01:42:17.965Z,13.13
2023-09-26T01:43:18.023Z,13.13
2023-09-26T01:44:17.958Z,13.14
2023-09-26T01:45:17.949Z,13.09
2023-09-26T01:46:17.999Z,13.11
2023-09-26T01:47:17.930Z,13.13
2023-09-26T01:48:17.936Z,13.11
2023-09-26T01:49:17.946Z,13.11
2023-09-26T01:50:17.892Z,13.08
2023-09-26T01:51:17.893Z,13.09
2023-09-26T01:52:17.919Z,13.13
2023-09-26T01:53:17.885Z,13.08
2023-09-26T01:54:17.858Z,13.09
2023-09-26T01:55:17.881Z,13.14
2023-09-26T01:56:17.850Z,13.13
2023-09-26T01:57:17.846Z,13.11
2023-09-26T01:58:17.853Z,13.06
2023-09-26T01:59:17.818Z,13.06
2023-09-26T02:00:17.800Z,13.06
2023-09-26T02:01:17.882Z,13.01
2023-09-26T02:02:17.853Z,13.02
2023-09-26T02:03:18.045Z,12.95
2023-09-26T02:04:17.789Z,12.95
2023-09-26T02:05:17.770Z,12.95
2023-09-26T02:06:17.760Z,12.93
2023-09-26T02:07:17.778Z,12.91
2023-09-26T02:08:17.736Z,12.95
2023-09-26T02:09:17.717Z,12.98
2023-09-26T02:10:17.753Z,12.95
2023-09-26T02:11:17.702Z,12.98
2023-09-26T02:12:17.704Z,12.99
2023-09-26T02:13:17.780Z,12.91
2023-09-26T02:14:17.660Z,12.95
2023-09-26T02:15:17.672Z,12.98
2023-09-26T02:16:17.712Z,12.96
2023-09-26T02:17:17.648Z,12.91
2023-09-26T02:18:17.640Z,12.88
2023-09-26T02:19:18.342Z,12.87
2023-09-26T02:20:17.677Z,12.91
2023-09-26T02:21:17.612Z,12.90
2023-09-26T02:22:17.663Z,12.84
2023-09-26T02:23:17.609Z,12.84
2023-09-26T02:24:17.572Z,12.84
2023-09-26T02:25:17.643Z,12.83
2023-09-26T02:26:17.567Z,12.79
2023-09-26T02:27:17.576Z,12.76
2023-09-26T02:28:17.576Z,12.76
2023-09-26T02:29:17.527Z,12.81
2023-09-26T02:30:17.545Z,12.77
2023-09-26T02:31:17.647Z,12.77
2023-09-26T02:32:17.531Z,12.73
2023-09-26T02:33:17.495Z,12.77
2023-09-26T02:34:17.503Z,12.73
2023-09-26T02:35:17.470Z,12.76
2023-09-26T02:36:17.498Z,12.72
2023-09-26T02:37:17.505Z,12.73
2023-09-26T02:38:17.473Z,12.79
2023-09-26T02:39:17.442Z,12.76
2023-09-26T02:40:17.458Z,12.73
2023-09-26T02:41:17.409Z,12.72
2023-09-26T02:42:17.407Z,12.71
2023-09-26T02:43:17.445Z,12.72
2023-09-26T02:44:17.392Z,12.69
2023-09-26T02:45:17.381Z,12.66
2023-09-26T02:46:17.564Z,12.66
2023-09-26T02:47:17.385Z,12.68
2023-09-26T02:48:17.413Z,12.69
2023-09-26T02:49:17.354Z,12.65
2023-09-26T02:50:17.353Z,12.68
2023-09-26T02:51:17.325Z,12.62
2023-09-26T02:52:17.451Z,12.69
2023-09-26T02:53:17.336Z,12.61
2023-09-26T02:54:17.293Z,12.54
2023-09-26T02:55:17.316Z,12.59
2023-09-26T02:56:17.290Z,12.54
2023-09-26T02:57:17.272Z,12.53
2023-09-26T02:58:17.325Z,12.51
2023-09-26T02:59:17.238Z,12.53
2023-09-26T03:00:17.440Z,12.51
2023-09-26T03:01:17.301Z,12.50
2023-09-26T03:02:17.222Z,12.51
2023-09-26T03:03:17.303Z,12.48
2023-09-26T03:04:17.284Z,12.48
2023-09-26T03:05:17.188Z,12.44
2023-09-26T03:06:17.173Z,12.48
2023-09-26T03:07:17.293Z,12.50
2023-09-26T03:08:17.182Z,12.51
2023-09-26T03:09:17.157Z,12.51
2023-09-26T03:10:17.279Z,12.50
2023-09-26T03:11:17.119Z,12.48
2023-09-26T03:12:17.106Z,12.48
2023-09-26T03:13:17.180Z,12.46
2023-09-26T03:14:17.113Z,12.44
2023-09-26T03:15:17.169Z,12.46
2023-09-26T03:16:17.201Z,12.47
2023-09-26T03:17:17.054Z,12.44
2023-09-26T03:18:17.063Z,12.48
2023-09-26T03:19:17.083Z,12.47
2023-09-26T03:20:17.450Z,12.43
2023-09-26T03:21:17.050Z,12.44
2023-09-26T03:22:17.080Z,12.44
2023-09-26T03:23:16.993Z,12.43
2023-09-26T03:24:17.015Z,12.44
2023-09-26T03:25:17.013Z,12.40
2023-09-26T03:26:16.988Z,12.41
2023-09-26T03:27:17.001Z,12.40
2023-09-26T03:28:17.016Z,12.43
2023-09-26T03:29:16.978Z,12.40
2023-09-26T03:30:16.947Z,12.43
2023-09-26T03:31:17.034Z,12.47
2023-09-26T03:32:16.984Z,12.50
2023-09-26T03:33:16.906Z,12.44
2023-09-26T03:34:16.929Z,12.47
2023-09-26T03:35:16.885Z,12.44
2023-09-26T03:36:16.885Z,12.43
2023-09-26T03:37:16.991Z,12.38
2023-09-26T03:38:16.882Z,12.38
2023-09-26T03:39:16.875Z,12.43
2023-09-26T03:40:16.911Z,12.46
2023-09-26T03:41:16.843Z,12.43
2023-09-26T03:42:16.851Z,12.38
2023-09-26T03:43:16.866Z,12.28
2023-09-26T03:44:16.832Z,12.25
2023-09-26T03:45:16.790Z,12.17
2023-09-26T03:46:16.857Z,12.22
2023-09-26T03:47:16.785Z,12.15
2023-09-26T03:48:16.840Z,12.14
2023-09-26T03:49:16.844Z,12.15
2023-09-26T03:50:16.770Z,12.18
2023-09-26T03:51:16.730Z,12.21
2023-09-26T03:52:16.858Z,12.18
2023-09-26T03:53:16.727Z,12.21
2023-09-26T03:54:16.724Z,12.23
2023-09-26T03:55:16.775Z,12.22
2023-09-26T03:56:16.692Z,12.26
2023-09-26T03:57:16.690Z,12.26
2023-09-26T03:58:16.736Z,12.25
2023-09-26T03:59:16.675Z,12.22
2023-09-26T04:00:16.739Z,12.22
2023-09-26T04:01:16.697Z,12.22
2023-09-26T04:02:16.773Z,12.25
2023-09-26T04:03:16.655Z,12.23
2023-09-26T04:04:16.752Z,12.25
2023-09-26T04:05:16.611Z,12.25
2023-09-26T04:06:16.661Z,12.18
2023-09-26T04:07:16.617Z,12.18
2023-09-26T04:08:16.571Z,12.15
2023-09-26T04:09:16.565Z,12.15
2023-09-26T04:10:16.602Z,12.17
2023-09-26T04:11:16.559Z,12.18
2023-09-26T04:12:16.533Z,12.17
2023-09-26T04:13:16.554Z,12.10
2023-09-26T04:14:16.526Z,12.10
2023-09-26T04:15:16.499Z,12.11
2023-09-26T04:16:16.529Z,12.08
2023-09-26T04:17:16.489Z,12.08
2023-09-26T04:18:16.490Z,12.05
2023-09-26T04:19:16.679Z,12.10
2023-09-26T04:20:30.904Z,12.07
2023-09-26T04:21:16.471Z,12.05
2023-09-26T04:22:16.531Z,12.04
2023-09-26T04:23:16.431Z,12.10
2023-09-26T04:24:16.425Z,12.08
2023-09-26T04:25:16.477Z,12.04
2023-09-26T04:26:16.395Z,12.04
2023-09-26T04:27:16.521Z,12.05
2023-09-26T04:28:16.414Z,12.05
2023-09-26T04:29:16.373Z,12.03
2023-09-26T04:30:16.364Z,12.03
2023-09-26T04:31:16.433Z,11.99
2023-09-26T04:32:16.435Z,11.97
2023-09-26T04:33:16.330Z,12.00
2023-09-26T04:34:16.420Z,11.95
2023-09-26T04:35:16.297Z,11.93
2023-09-26T04:36:16.341Z,11.95
2023-09-26T04:37:16.331Z,11.97
2023-09-26T04:38:16.310Z,11.96
2023-09-26T04:39:16.270Z,11.97
2023-09-26T04:40:16.294Z,12.03
2023-09-26T04:41:16.246Z,11.99
2023-09-26T04:42:16.246Z,12.00
2023-09-26T04:43:16.252Z,11.99
2023-09-26T04:44:16.237Z,12.00
2023-09-26T04:45:16.243Z,11.97
2023-09-26T04:46:16.318Z,11.99
2023-09-26T04:47:16.242Z,11.95
2023-09-26T04:48:16.331Z,11.89
2023-09-26T04:49:16.173Z,11.91
2023-09-26T04:50:16.200Z,11.91
2023-09-26T04:51:16.194Z,11.91
2023-09-26T04:52:16.228Z,11.96
2023-09-26T04:53:16.126Z,11.99
2023-09-26T04:54:16.136Z,11.93
2023-09-26T04:55:16.160Z,11.93
2023-09-26T04:56:16.196Z,11.97
2023-09-26T04:57:16.098Z,11.99
2023-09-26T04:58:16.124Z,11.96
2023-09-26T04:59:16.098Z,11.96
2023-09-26T05:00:16.113Z,12.03
2023-09-26T05:01:16.292Z,12.00
2023-09-26T05:02:16.090Z,12.07
2023-09-26T05:03:16.080Z,12.03
2023-09-26T05:04:16.067Z,12.04
2023-09-26T05:05:16.034Z,11.99
2023-09-26T05:06:16.049Z,11.91
2023-09-26T05:07:16.045Z,11.91
2023-09-26T05:08:15.992Z,11.89
2023-09-26T05:09:16.064Z,11.91
2023-09-26T05:10:16.096Z,11.93
2023-09-26T05:11:15.978Z,11.97
2023-09-26T05:12:15.957Z,11.91
2023-09-26T05:13:16.014Z,11.91
2023-09-26T05:14:16.006Z,11.88
2023-09-26T05:15:21.960Z,11.89
2023-09-26T05:16:15.982Z,11.88
2023-09-26T05:17:15.941Z,11.80
2023-09-26T05:18:17.598Z,11.84
2023-09-26T05:19:15.923Z,11.84
2023-09-26T05:20:15.879Z,11.80
2023-09-26T05:21:15.882Z,11.85
2023-09-26T05:22:15.899Z,11.85
2023-09-26T05:23:15.838Z,11.85
2023-09-26T05:24:15.841Z,11.88
2023-09-26T05:25:15.856Z,11.85
2023-09-26T05:26:15.816Z,11.87
2023-09-26T05:27:15.802Z,11.88
2023-09-26T05:28:15.847Z,11.93
2023-09-26T05:29:15.849Z,11.91
2023-09-26T05:30:15.794Z,11.93
2023-09-26T05:31:15.891Z,11.91
2023-09-26T05:32:15.791Z,11.95
2023-09-26T05:33:15.830Z,11.93
2023-09-26T05:34:15.776Z,11.96
2023-09-26T05:35:15.714Z,12.00
2023-09-26T05:36:15.735Z,11.96
2023-09-26T05:37:15.793Z,12.03
2023-09-26T05:38:15.709Z,12.00
2023-09-26T05:39:15.693Z,12.03
2023-09-26T05:40:15.714Z,12.03
2023-09-26T05:41:15.677Z,12.07
2023-09-26T05:42:15.697Z,12.07
2023-09-26T05:43:15.657Z,12.08
2023-09-26T05:44:15.645Z,12.11
2023-09-26T05:45:15.636Z,12.18
2023-09-26T05:46:15.661Z,12.14
2023-09-26T05:47:15.639Z,12.15
2023-09-26T05:48:15.657Z,12.21
2023-09-26T05:49:15.652Z,12.23
2023-09-26T05:50:15.596Z,12.26
2023-09-26T05:51:15.612Z,12.26
2023-09-26T05:52:15.580Z,12.30
2023-09-26T05:53:15.549Z,12.32
2023-09-26T05:54:29.445Z,12.36
2023-09-26T05:55:15.571Z,12.33
2023-09-26T05:56:15.528Z,12.43
2023-09-26T05:57:15.520Z,12.36
2023-09-26T05:58:15.562Z,12.43
2023-09-26T05:59:15.471Z,12.46
2023-09-26T06:00:15.503Z,12.46
2023-09-26T06:01:15.540Z,12.51
2023-09-26T06:02:17.278Z,12.50
2023-09-26T06:03:15.499Z,12.58
2023-09-26T06:04:15.584Z,12.61
2023-09-26T06:05:15.492Z,12.62
2023-09-26T06:06:15.419Z,12.63
2023-09-26T06:07:15.501Z,12.72
2023-09-26T06:08:15.411Z,12.72
2023-09-26T06:09:15.413Z,12.79
2023-09-26T06:10:15.420Z,12.83
2023-09-26T06:11:15.368Z,12.84
2023-09-26T06:12:15.420Z,12.87
2023-09-26T06:13:15.365Z,12.91
2023-09-26T06:14:15.362Z,12.93
2023-09-26T06:15:15.335Z,12.91
2023-09-26T06:16:15.526Z,13.02
2023-09-26T06:17:15.356Z,13.02
2023-09-26T06:18:15.349Z,13.08
2023-09-26T06:19:15.367Z,13.05
2023-09-26T06:20:15.321Z,13.09
2023-09-26T06:21:15.327Z,13.17
2023-09-26T06:22:15.950Z,13.16
2023-09-26T06:23:15.355Z,13.11
2023-09-26T06:24:15.300Z,13.17
2023-09-26T06:25:15.295Z,13.14
2023-09-26T06:26:15.267Z,13.17
2023-09-26T06:27:15.226Z,13.16
2023-09-26T06:28:15.246Z,13.17
2023-09-26T06:29:15.217Z,13.21
2023-09-26T06:30:15.202Z,13.30
2023-09-26T06:31:15.362Z,13.27
2023-09-26T06:32:15.301Z,13.36
2023-09-26T06:33:15.283Z,13.36
2023-09-26T06:34:15.196Z,13.40
2023-09-26T06:35:15.144Z,13.42
2023-09-26T06:36:15.262Z,13.47
2023-09-26T06:37:15.233Z,13.47
2023-09-26T06:38:15.117Z,13.53
2023-09-26T06:39:15.105Z,13.53
2023-09-26T06:40:15.171Z,13.55
2023-09-26T06:41:15.117Z,13.61
2023-09-26T06:42:15.110Z,13.65
2023-09-26T06:43:15.125Z,13.72
2023-09-26T06:44:15.048Z,13.75
2023-09-26T06:45:15.083Z,13.72
2023-09-26T06:46:15.133Z,13.79
2023-09-26T06:47:15.105Z,13.82
2023-09-26T06:48:15.057Z,13.88
2023-09-26T06:49:15.048Z,13.83
2023-09-26T06:50:15.009Z,13.83
2023-09-26T06:51:14.985Z,13.91
2023-09-26T06:52:15.006Z,13.94
2023-09-26T06:53:14.978Z,13.96
2023-09-26T06:54:14.977Z,14.00
2023-09-26T06:55:14.969Z,13.98
2023-09-26T06:56:14.930Z,14.05
2023-09-26T06:57:14.925Z,14.00
2023-09-26T06:58:14.960Z,14.04
2023-09-26T06:59:14.949Z,14.04
2023-09-26T07:00:14.958Z,14.04
2023-09-26T07:01:14.932Z,14.04
2023-09-26T07:02:14.866Z,14.11
2023-09-26T07:03:14.930Z,14.12
2023-09-26T07:04:14.921Z,14.13
2023-09-26T07:05:14.935Z,14.15
2023-09-26T07:06:14.835Z,14.15
2023-09-26T07:07:14.862Z,14.18
2023-09-26T07:08:14.848Z,14.26
2023-09-26T07:09:14.833Z,14.22
2023-09-26T07:10:14.871Z,14.23
2023-09-26T07:11:14.806Z,14.27
2023-09-26T07:12:14.796Z,14.31
2023-09-26T07:13:26.354Z,14.31
2023-09-26T07:14:16.009Z,14.37
2023-09-26T07:15:14.758Z,14.41
2023-09-26T07:16:14.870Z,14.41
2023-09-26T07:17:14.861Z,14.44
2023-09-26T07:18:14.804Z,14.44
2023-09-26T07:19:14.774Z,14.48
2023-09-26T07:20:14.810Z,14.51
2023-09-26T07:21:14.713Z,14.46
2023-09-26T07:22:14.763Z,14.48
2023-09-26T07:23:14.714Z,14.52
2023-09-26T07:24:14.671Z,14.49
2023-09-26T07:25:14.810Z,14.52
2023-09-26T07:26:16.236Z,14.51
2023-09-26T07:27:14.661Z,14.53
2023-09-26T07:28:14.673Z,14.51
2023-09-26T07:29:14.629Z,14.55
2023-09-26T07:30:14.632Z,14.59
2023-09-26T07:31:14.649Z,14.61
2023-09-26T07:32:14.605Z,14.63
2023-09-26T07:33:14.670Z,14.61
2023-09-26T07:34:14.619Z,14.63
2023-09-26T07:35:14.557Z,14.61
2023-09-26T07:36:14.556Z,14.61
2023-09-26T07:37:14.582Z,14.69
2023-09-26T07:38:14.524Z,14.74
2023-09-26T07:39:14.542Z,14.82
2023-09-26T07:40:14.619Z,14.86
2023-09-26T07:41:14.541Z,14.90
2023-09-26T07:42:14.482Z,14.96
2023-09-26T07:43:14.611Z,15.04
2023-09-26T07:44:14.476Z,15.03
2023-09-26T07:45:14.475Z,15.04
2023-09-26T07:46:14.499Z,14.97
2023-09-26T07:47:14.466Z,14.97
2023-09-26T07:48:14.423Z,15.01
2023-09-26T07:49:14.440Z,14.90
2023-09-26T07:50:14.400Z,14.92
2023-09-26T07:51:16.007Z,14.92
2023-09-26T07:52:14.433Z,14.99
2023-09-26T07:53:14.376Z,15.05
2023-09-26T07:54:14.384Z,15.14
2023-09-26T07:55:14.417Z,15.22
2023-09-26T07:56:14.352Z,15.30
2023-09-26T07:57:14.334Z,15.36
2023-09-26T07:58:14.389Z,15.38
2023-09-26T07:59:14.334Z,15.38
2023-09-26T08:00:14.366Z,15.40
2023-09-26T08:01:14.424Z,15.44
2023-09-26T08:02:14.355Z,15.47
2023-09-26T08:03:14.291Z,15.44
2023-09-26T08:04:14.406Z,15.50
2023-09-26T08:05:14.262Z,15.56
2023-09-26T08:06:14.301Z,15.58
2023-09-26T08:07:14.275Z,15.60
2023-09-26T08:08:14.232Z,15.66
2023-09-26T08:09:14.268Z,15.70
2023-09-26T08:10:14.250Z,15.72
2023-09-26T08:11:14.220Z,15.70
2023-09-26T08:12:14.199Z,15.80
2023-09-26T08:13:14.219Z,15.73
2023-09-26T08:14:14.201Z,15.78
2023-09-26T08:15:14.170Z,15.84
2023-09-26T08:16:14.228Z,15.85
2023-09-26T08:17:14.217Z,15.90
2023-09-26T08:18:14.147Z,15.96
2023-09-26T08:19:14.246Z,16.00
2023-09-26T08:20:15.278Z,16.06
2023-09-26T08:21:14.138Z,16.08
2023-09-26T08:22:14.092Z,16.13
2023-09-26T08:23:14.118Z,16.10
2023-09-26T08:24:14.090Z,16.18
2023-09-26T08:25:14.119Z,16.22
2023-09-26T08:26:14.058Z,16.28
2023-09-26T08:27:14.053Z,16.29
2023-09-26T08:28:14.066Z,16.25
2023-09-26T08:29:14.063Z,16.26
2023-09-26T08:30:14.046Z,16.29
2023-09-26T08:31:14.055Z,16.36
2023-09-26T08:32:14.022Z,16.32
2023-09-26T08:33:14.001Z,16.37
2023-09-26T08:34:14.043Z,16.34
2023-09-26T08:35:13.989Z,16.42
2023-09-26T08:36:13.983Z,16.47
2023-09-26T08:37:14.044Z,16.47
2023-09-26T08:38:13.936Z,16.46
2023-09-26T08:39:13.955Z,16.49
2023-09-26T08:40:13.944Z,16.54
2023-09-26T08:41:13.931Z,16.61
2023-09-26T08:42:13.901Z,16.64
2023-09-26T08:43:13.986Z,16.64
2023-09-26T08:44:13.885Z,16.65
2023-09-26T08:45:13.881Z,16.65
2023-09-26T08:46:13.905Z,16.72
2023-09-26T08:47:13.888Z,16.79
2023-09-26T08:48:13.858Z,16.87
2023-09-26T08:49:13.896Z,16.91
2023-09-26T08:50:15.115Z,16.92
2023-09-26T08:51:13.820Z,16.95
2023-09-26T08:52:13.839Z,16.98
2023-09-26T08:53:13.815Z,17.01
2023-09-26T08:54:13.795Z,17.04
2023-09-26T08:55:13.828Z,17.09
2023-09-26T08:56:13.794Z,17.17
2023-09-26T08:57:13.769Z,17.17
2023-09-26T08:58:13.780Z,17.17
2023-09-26T08:59:13.753Z,17.19
2023-09-26T09:00:13.759Z,17.25
2023-09-26T09:01:13.802Z,17.32
2023-09-26T09:02:13.787Z,17.32
2023-09-26T09:03:13.990Z,17.37
2023-09-26T09:04:13.766Z,17.43
2023-09-26T09:05:13.708Z,17.43
2023-09-26T09:06:13.679Z,17.45
2023-09-26T09:07:13.725Z,17.47
2023-09-26T09:08:13.652Z,17.50
2023-09-26T09:09:13.668Z,17.54
2023-09-26T09:10:13.725Z,17.59
2023-09-26T09:11:13.655Z,17.69
2023-09-26T09:12:13.617Z,17.68
2023-09-26T09:13:13.673Z,17.71
2023-09-26T09:14:13.601Z,17.72
2023-09-26T09:15:13.622Z,17.76
2023-09-26T09:16:13.835Z,17.81
2023-09-26T09:17:13.661Z,17.84
2023-09-26T09:18:13.608Z,17.87
2023-09-26T09:19:13.589Z,17.90
2023-09-26T09:20:13.558Z,17.97
2023-09-26T09:21:13.566Z,18.01
2023-09-26T09:22:13.562Z,18.06
2023-09-26T09:23:13.544Z,18.11
2023-09-26T09:24:14.095Z,18.13
2023-09-26T09:25:13.608Z,18.18
2023-09-26T09:26:13.537Z,18.24
2023-09-26T09:27:13.497Z,18.28
2023-09-26T09:28:13.540Z,18.31
2023-09-26T09:29:13.482Z,18.33
2023-09-26T09:30:13.486Z,18.34
2023-09-26T09:31:13.552Z,18.42
2023-09-26T09:32:13.497Z,18.38
2023-09-26T09:33:13.471Z,18.41
2023-09-26T09:34:13.557Z,18.46
2023-09-26T09:35:13.470Z,18.49
2023-09-26T09:36:13.421Z,18.49
2023-09-26T09:37:13.457Z,18.51
2023-09-26T09:38:13.389Z,18.57
2023-09-26T09:39:13.390Z,18.58
2023-09-26T09:40:13.406Z,18.61
2023-09-26T09:41:13.385Z,18.63
2023-09-26T09:42:13.359Z,18.67
2023-09-26T09:43:13.381Z,18.70
2023-09-26T09:44:13.332Z,18.74
2023-09-26T09:45:13.354Z,18.79
2023-09-26T09:46:13.422Z,18.82
2023-09-26T09:47:13.385Z,18.86
2023-09-26T09:48:13.377Z,18.89
2023-09-26T09:49:13.929Z,18.96
2023-09-26T09:50:13.284Z,19.00
2023-09-26T09:51:13.352Z,19.08
2023-09-26T09:52:13.290Z,19.07
2023-09-26T09:53:13.238Z,19.09
2023-09-26T09:54:13.222Z,19.09
2023-09-26T09:55:13.252Z,19.09
2023-09-26T09:56:13.202Z,19.13
2023-09-26T09:57:13.267Z,19.15
2023-09-26T09:58:13.398Z,19.17
2023-09-26T09:59:13.231Z,19.20
2023-09-26T10:00:13.208Z,19.24
2023-09-26T10:01:13.256Z,19.26
2023-09-26T10:02:13.228Z,19.31
2023-09-26T10:03:13.265Z,19.37
2023-09-26T10:04:13.247Z,19.39
2023-09-26T10:05:13.122Z,19.45
2023-09-26T10:06:13.126Z,19.47
2023-09-26T10:07:13.194Z,19.50
2023-09-26T10:08:13.083Z,19.54
2023-09-26T10:09:13.091Z,19.59
2023-09-26T10:10:13.150Z,19.56
2023-09-26T10:11:13.128Z,19.64
2023-09-26T10:12:13.042Z,19.67
2023-09-26T10:13:35.162Z,19.64
2023-09-26T10:14:13.085Z,19.72
2023-09-26T10:15:13.078Z,19.77
2023-09-26T10:16:13.607Z,19.79
2023-09-26T10:17:13.128Z,19.82
2023-09-26T10:18:13.025Z,19.84
2023-09-26T10:19:13.028Z,19.89
2023-09-26T10:20:39.653Z,19.92
2023-09-26T10:21:12.979Z,19.94
2023-09-26T10:22:12.981Z,19.99
2023-09-26T10:23:12.939Z,20.05
2023-09-26T10:24:12.928Z,20.08
2023-09-26T10:25:12.938Z,20.11
2023-09-26T10:26:12.958Z,20.17
2023-09-26T10:27:26.977Z,20.17
2023-09-26T11:15:20.482Z,20.18
2023-09-26T11:15:35.922Z,21.48
2023-09-26T11:16:35.912Z,21.59
2023-09-26T11:17:35.929Z,21.62
2023-09-26T11:18:35.928Z,21.66
2023-09-26T11:19:35.890Z,21.67
2023-09-26T11:20:35.845Z,21.66
2023-09-26T11:21:35.850Z,21.71
2023-09-26T11:22:35.847Z,21.74
2023-09-26T11:23:35.824Z,21.71
2023-09-26T11:24:35.804Z,21.73
2023-09-26T11:25:35.812Z,21.78
2023-09-26T11:26:35.760Z,21.75
2023-09-26T11:27:35.769Z,21.81
2023-09-26T11:28:36.116Z,21.78
2023-09-26T11:29:35.871Z,21.78
2023-09-26T11:30:35.762Z,21.80
2023-09-26T11:31:35.897Z,21.84
2023-09-26T11:32:35.793Z,21.77
2023-09-26T11:33:35.785Z,21.78
2023-09-26T11:34:35.740Z,21.82
2023-09-26T11:35:35.700Z,21.82
2023-09-26T11:36:35.663Z,21.88
2023-09-26T11:37:35.689Z,21.85
2023-09-26T11:38:35.651Z,21.84
2023-09-26T11:39:35.670Z,21.91
2023-09-26T11:40:35.711Z,21.93
2023-09-26T11:41:44.050Z,21.97
2023-09-26T11:42:35.645Z,22.01
2023-09-26T11:43:35.706Z,21.98
2023-09-26T11:44:35.609Z,22.03
2023-09-26T11:45:35.878Z,22.04
2023-09-26T11:46:35.591Z,22.06
2023-09-26T11:47:35.605Z,22.09
2023-09-26T11:48:35.588Z,22.07
2023-09-26T11:49:35.589Z,22.12
2023-09-26T11:50:35.580Z,22.16
2023-09-26T11:51:35.509Z,22.21
2023-09-26T11:52:35.803Z,22.19
2023-09-26T11:53:35.552Z,22.22
2023-09-26T11:54:35.545Z,22.22
2023-09-26T11:55:35.517Z,22.30
2023-09-26T11:56:35.522Z,22.33
2023-09-26T11:57:35.455Z,22.36
2023-09-26T11:58:35.646Z,22.36
2023-09-26T11:59:36.247Z,22.37
2023-09-26T12:00:35.582Z,22.40
2023-09-26T12:01:35.613Z,22.41
2023-09-26T12:02:35.518Z,22.37
2023-09-26T12:03:35.585Z,22.40
2023-09-26T12:04:35.469Z,22.41
2023-09-26T12:05:35.442Z,22.41
2023-09-26T12:06:35.416Z,22.44
2023-09-26T12:07:35.400Z,22.43
2023-09-26T12:08:35.556Z,22.46
2023-09-26T12:09:35.416Z,22.44
2023-09-26T12:10:35.401Z,22.48
2023-09-26T12:11:35.351Z,22.48
2023-09-26T12:12:35.389Z,22.46
2023-09-26T12:13:35.351Z,22.43
2023-09-26T12:14:35.364Z,22.44
2023-09-26T12:15:35.303Z,22.41
2023-09-26T12:16:35.454Z,22.43
2023-09-26T12:17:35.370Z,22.43
2023-09-26T12:18:35.323Z,22.43
2023-09-26T12:19:35.271Z,22.41
2023-09-26T12:20:35.247Z,22.40
2023-09-26T12:21:35.294Z,22.38
2023-09-26T12:22:35.332Z,22.40
2023-09-26T12:23:35.253Z,22.38
2023-09-26T12:24:35.308Z,22.44
2023-09-26T12:25:35.235Z,22.44
2023-09-26T12:26:35.229Z,22.44
2023-09-26T12:27:35.229Z,22.48
2023-09-26T12:28:35.348Z,22.49
2023-09-26T12:29:35.216Z,22.46
2023-09-26T12:30:35.198Z,22.53
2023-09-26T12:31:35.240Z,22.55
2023-09-26T12:32:35.277Z,22.58
2023-09-26T12:33:35.160Z,22.55
2023-09-26T12:34:35.176Z,22.53
2023-09-26T12:35:35.136Z,22.55
2023-09-26T12:36:35.129Z,22.52
2023-09-26T12:37:35.117Z,22.55
2023-09-26T12:38:35.126Z,22.55
2023-09-26T12:39:35.173Z,22.56
2023-09-26T12:40:35.180Z,22.61
2023-09-26T12:41:35.039Z,22.58
2023-09-26T12:42:35.059Z,22.61
2023-09-26T12:43:35.070Z,22.64
2023-09-26T12:44:35.150Z,22.62
2023-09-26T12:45:35.067Z,22.64
2023-09-26T12:46:35.165Z,22.67
2023-09-26T12:47:35.095Z,22.64
2023-09-26T12:48:35.048Z,22.64
2023-09-26T12:49:35.037Z,22.62
2023-09-26T12:50:34.982Z,22.67
2023-09-26T12:51:34.973Z,22.64
2023-09-26T12:52:35.072Z,22.66
2023-09-26T12:53:34.949Z,22.66
2023-09-26T12:54:35.028Z,22.71
2023-09-26T12:55:34.982Z,22.67
2023-09-26T12:56:34.955Z,22.68
2023-09-26T12:57:34.964Z,22.70
2023-09-26T12:58:34.924Z,22.71
2023-09-26T12:59:34.961Z,22.64
2023-09-26T13:00:34.950Z,22.67
2023-09-26T13:01:34.975Z,22.68
2023-09-26T13:02:35.009Z,22.70
2023-09-26T13:03:34.930Z,22.70
2023-09-26T13:04:34.912Z,22.68
2023-09-26T13:05:34.874Z,22.73
2023-09-26T13:06:34.821Z,22.68
2023-09-26T13:07:34.825Z,22.74
2023-09-26T13:08:34.824Z,22.76
2023-09-26T13:09:34.821Z,22.71
2023-09-26T13:10:38.491Z,22.78
2023-09-26T13:11:34.805Z,22.74
2023-09-26T13:12:34.796Z,22.74
2023-09-26T13:13:34.787Z,22.76
2023-09-26T13:14:34.743Z,22.71
2023-09-26T13:15:34.804Z,22.76
2023-09-26T13:16:34.835Z,22.73
2023-09-26T13:17:34.735Z,22.71
2023-09-26T13:18:34.698Z,22.74
2023-09-26T13:19:34.727Z,22.73
2023-09-26T13:20:34.916Z,22.70
2023-09-26T13:21:34.715Z,22.71
2023-09-26T13:22:34.677Z,22.70
2023-09-26T13:23:34.688Z,22.73
2023-09-26T13:24:34.686Z,22.70
2023-09-26T13:25:34.716Z,22.70
2023-09-26T13:26:34.647Z,22.73
2023-09-26T13:27:34.622Z,22.67
2023-09-26T13:28:34.647Z,22.68
2023-09-26T13:29:34.668Z,22.67
2023-09-26T13:31:34.682Z,22.70
2023-09-26T13:32:34.721Z,22.68
2023-09-26T13:33:34.595Z,22.70
2023-09-26T13:34:34.613Z,22.66
2023-09-26T13:35:34.567Z,22.64
2023-09-26T13:36:34.588Z,22.67
2023-09-26T13:37:34.508Z,22.61
2023-09-26T13:38:34.577Z,22.62
2023-09-26T13:39:34.495Z,22.64